Time;durP1;ratioP1;P1;durP2;ratioP2;P2;SDS_P1;SDS_P2;PMS_P1;PMS_P2;Temp;Humidity;BMP_temperature;BMP_pressure;BME280_temperature;BME280_humidity;BME280_pressure;Samples;Min_cycle;Max_cycle;Signal;HPM_P1;HPM_P2
2022/07/09 17:58:24;;;;;;;;;47.25;39.75;;;;;26.94;42.11;102312.72;5125746;27;50204;-71
2022/07/09 19:41:44;;;;;;;;;3.00;3.00;;;;;23.09;48.29;102427.13;5087415;27;49596;-66
2022/07/09 19:44:09;;;;;;;;;3.25;3.25;;;;;23.09;47.70;102429.81;5070149;27;49478;-66
2022/07/09 19:46:36;;;;;;;;;3.75;3.75;;;;;23.21;47.69;102427.06;5070512;28;49524;-64
2022/07/09 19:49:02;;;;;;;;;3.50;2.50;;;;;23.25;46.88;102433.28;5070070;28;50611;-64
2022/07/09 19:51:28;;;;;;;;;4.00;4.00;;;;;23.17;46.64;102403.00;5070161;28;49956;-73
2022/07/09 19:53:54;;;;;;;;;3.50;3.50;;;;;23.23;46.55;102430.63;5070365;28;49756;-63
2022/07/09 19:56:19;;;;;;;;;3.00;3.00;;;;;23.32;45.97;102440.41;5070145;28;49549;-64
2022/07/09 19:58:45;;;;;;;;;5.50;4.75;;;;;23.28;45.68;102428.81;5069996;28;50260;-68
2022/07/09 20:01:11;;;;;;;;;6.00;6.00;;;;;23.19;45.39;102428.88;5070029;28;49643;-68
2022/07/09 20:03:36;;;;;;;;;6.75;6.75;;;;;23.19;45.52;102407.44;5070029;27;49718;-68
2022/07/09 20:06:02;;;;;;;;;5.75;5.75;;;;;23.35;45.01;102438.59;5070178;28;49927;-68
2022/07/09 20:08:28;;;;;;;;;3.00;3.00;;;;;23.03;44.39;102403.03;5069760;28;50644;-68
2022/07/09 20:10:53;;;;;;;;;4.25;3.75;;;;;23.23;44.18;102440.44;5068362;28;49758;-69
2022/07/09 20:13:19;;;;;;;;;2.75;2.75;;;;;23.09;44.00;102445.88;5069773;28;49692;-68
2022/07/09 20:15:44;;;;;;;;;4.75;4.25;;;;;23.00;44.16;102454.84;4998718;28;50676;-68
2022/07/09 20:18:10;;;;;;;;;5.75;4.25;;;;;22.82;43.87;102442.38;5054210;27;49858;-68
2022/07/09 20:20:36;;;;;;;;;10.50;8.50;;;;;22.92;43.84;102461.13;5059071;27;49931;-69
2022/07/09 20:23:01;;;;;;;;;5.00;5.00;;;;;22.91;43.89;102470.06;5058866;27;50014;-68
2022/07/09 20:25:28;;;;;;;;;5.00;4.75;;;;;22.99;43.86;102473.59;5064251;27;49903;-68
2022/07/09 20:27:53;;;;;;;;;4.25;3.25;;;;;22.61;43.18;102444.22;5069132;28;49763;-67
2022/07/09 20:30:19;;;;;;;;;3.25;3.25;;;;;22.79;43.63;102487.03;5069569;28;49826;-68
2022/07/09 20:32:44;;;;;;;;;2.00;2.00;;;;;22.54;42.17;102473.66;5069671;27;49745;-65
2022/07/09 20:35:10;;;;;;;;;2.25;2.25;;;;;22.42;42.14;102478.16;5069820;28;49812;-65
2022/07/09 20:37:35;;;;;;;;;3.00;3.00;;;;;22.41;42.33;102496.00;5069468;28;49588;-65
2022/07/09 20:40:01;;;;;;;;;2.00;2.00;;;;;22.35;42.46;102484.41;5075302;27;49756;-65
2022/07/09 20:42:27;;;;;;;;;1.25;1.25;;;;;22.46;42.12;102506.69;5089599;27;49765;-65
2022/07/09 20:44:52;;;;;;;;;1.00;1.00;;;;;22.24;41.56;102520.06;5090154;27;49704;-67
2022/07/09 20:47:17;;;;;;;;;2.75;1.50;;;;;21.96;41.80;102460.28;5089748;27;52673;-67
2022/07/09 20:49:43;;;;;;;;;1.50;1.50;;;;;22.25;41.88;102508.47;5089682;27;50123;-67
2022/07/09 20:52:09;;;;;;;;;1.50;1.50;;;;;22.10;41.60;102504.91;5081529;27;49823;-67
2022/07/09 20:54:34;;;;;;;;;1.00;1.00;;;;;21.92;41.69;102490.59;5076393;27;49570;-67
2022/07/09 20:56:59;;;;;;;;;1.75;1.75;;;;;21.96;42.13;102492.38;5075726;28;50359;-67
2022/07/09 20:59:25;;;;;;;;;3.00;2.00;;;;;22.02;42.01;102520.03;5075814;28;49776;-67
2022/07/09 21:01:50;;;;;;;;;1.50;1.00;;;;;22.00;42.15;102517.34;5076145;28;49706;-67
2022/07/09 21:04:15;;;;;;;;;1.00;1.00;;;;;21.59;42.51;102443.31;5076263;28;49617;-67
2022/07/09 21:06:41;;;;;;;;;1.50;1.25;;;;;21.85;42.36;102493.25;5075624;28;50760;-67
2022/07/09 21:09:06;;;;;;;;;1.00;1.00;;;;;21.90;42.21;102513.75;5075870;28;49858;-67
2022/07/09 21:11:32;;;;;;;;;1.00;1.00;;;;;21.82;42.60;102507.53;5075524;27;49828;-68
2022/07/09 21:13:57;;;;;;;;;1.00;1.00;;;;;21.91;42.74;102533.38;5075915;28;49710;-68
2022/07/09 21:18:46;;;;;;;;;1.00;1.00;;;;;21.77;42.71;102521.75;5075591;27;50531;-67
2022/07/09 21:19:08;;;;;;;;;0.50;0.50;;;;;21.74;42.76;102519.09;5075703;28;49748;-67
2022/07/09 21:21:33;;;;;;;;;1.25;1.25;;;;;21.71;43.13;102550.28;5075642;27;49658;-67
2022/07/09 21:23:59;;;;;;;;;2.00;2.00;;;;;21.52;43.31;102529.72;5075594;28;49740;-66
2022/07/09 21:26:25;;;;;;;;;1.75;1.50;;;;;21.46;43.54;102551.06;5075055;28;51335;-68
